Flight Track Log - Related Links

Times and Time Zones

All times are in EDT time to prevent confusion due to time zone crossing. See the TAM3854 flight status page for this flight to view local times or setup timezone preferences in your user account.

Time Position Orientation Groundspeed Altitude Reporting Facility
EDT Latitude Longitude Course Direction KTS MPH feet Rate Location/Type
Mon 07:29:47 PM -19.6270 -42.1220 290° West  Level FlightAware ADS-B
Mon 07:30:17 PM -19.6250 -42.1300 285° West 1,259 Level FlightAware ADS-B
Mon 07:30:47 PM -19.6230 -42.1350 293° West 1,324 Level FlightAware ADS-B
Mon 07:33:00 PM -19.5429 -42.2636 303° West  Level Estimated
Mon 07:33:02 PM -19.6230 -42.3700 303° West 2,500  Level FlightAware ADS-B
Mon 07:33:42 PM -19.6230 -42.0400 90° East 2,500 1,489 Level FlightAware ADS-B
Mon 07:34:02 PM -19.6240 -42.1380 269° West 2,500 1,648 Level FlightAware ADS-B
Mon 07:34:22 PM -19.6240 -42.0410 90° East 2,500 1,741 Level FlightAware ADS-B
Mon 07:34:47 PM -19.6240 -42.1380 270° West 2,500 1,845 Level FlightAware ADS-B
Mon 07:35:42 PM -19.6330 -42.1140 112° Southeast 2,500 1,994 Level FlightAware ADS-B
Mon 07:35:47 PM -19.6360 -42.0080 92° East 2,600 2,424 Climbing FlightAware ADS-B
Mon 07:38:00 PM -19.5570 -42.1373 303° West  Level Estimated
Mon 07:39:00 PM -19.5214 -42.1956 303° West  Level Estimated
Mon 07:39:42 PM -19.5850 -43.9630 303° West 12,300  Level FlightAware ADS-B
Mon 07:39:57 PM -19.5800 -43.9810 286° West 313 360 12,800 1,920 Climbing FlightAware ADS-B
Mon 07:40:32 PM -19.5570 -44.0350 294° West 347 399 13,900 1,680 Climbing FlightAware ADS-B
Mon 07:40:47 PM -19.5400 -44.0490 322° Northwest 360 414 14,200 1,964 Climbing FlightAware ADS-B
Mon 07:41:27 PM -19.4860 -44.1000 318° Northwest 380 437 15,700 2,267 Climbing FlightAware ADS-B
Mon 07:42:17 PM -19.4270 -44.1710 311° West 396 456 17,600 2,753 Climbing FlightAware ADS-B
Mon 07:42:52 PM -19.3820 -44.2200 314° West 383 441 19,600 2,824 Climbing FlightAware ADS-B
Mon 07:43:42 PM -19.3230 -44.2860 313° West 384 442 21,600 2,259 Climbing FlightAware ADS-B
Mon 07:44:17 PM -19.2790 -44.3350 314° West 390 449 22,800 2,175 Climbing FlightAware ADS-B
Mon 07:45:02 PM -19.2220 -44.3980 314° West 395 455 24,500 2,188 Climbing FlightAware ADS-B
Mon 07:45:42 PM -19.1700 -44.4560 314° West 396 456 25,900 1,835 Climbing FlightAware ADS-B
Mon 07:46:27 PM -19.1080 -44.5160 318° Northwest 406 467 27,100 1,694 Climbing FlightAware ADS-B
Mon 07:47:07 PM -19.0520 -44.5690 318° Northwest 411 473 28,300 1,482 Climbing FlightAware ADS-B
Mon 07:47:52 PM -18.9880 -44.6290 318° Northwest 421 484 29,200 1,200 Climbing FlightAware ADS-B
Mon 07:48:47 PM -18.9070 -44.7060 318° Northwest 434 499 30,300 1,260 Climbing FlightAware ADS-B
Mon 07:49:32 PM -18.8430 -44.7660 318° Northwest 440 506 31,300 1,906 Climbing FlightAware ADS-B
Mon 07:50:12 PM -18.7780 -44.8280 318° Northwest 425 489 33,000 1,958 Climbing FlightAware ADS-B
Mon 07:51:07 PM -18.6970 -44.9040 318° Northwest 426 490 34,400 1,620 Climbing FlightAware ADS-B
Mon 07:51:52 PM -18.6290 -44.9680 318° Northwest 420 483 35,700 1,129 Climbing FlightAware ADS-B
Mon 07:52:32 PM -18.5690 -45.0240 318° Northwest 433 498 36,000 225 Climbing FlightAware ADS-B
Mon 07:53:12 PM -18.5090 -45.0800 318° Northwest 444 511 36,000  Level FlightAware ADS-B
Mon 07:53:57 PM -18.4400 -45.1450 318° Northwest 441 507 36,000  Level FlightAware ADS-B
Mon 07:54:37 PM -18.3790 -45.2020 318° Northwest 443 510 36,000  Level FlightAware ADS-B
Mon 07:55:17 PM -18.3200 -45.2580 318° Northwest 443 510 36,000  Level FlightAware ADS-B
Mon 07:56:02 PM -18.2540 -45.3190 319° Northwest 444 511 36,000  Level FlightAware ADS-B
Mon 07:56:52 PM -18.1730 -45.3950 318° Northwest 443 510 36,000  Level FlightAware ADS-B
Mon 07:57:37 PM -18.1030 -45.4590 319° Northwest 444 511 36,000  Level FlightAware ADS-B
Mon 07:58:22 PM -18.0400 -45.5150 320° Northwest 444 511 36,000  Level FlightAware ADS-B
Mon 07:58:57 PM -17.9800 -45.5660 321° Northwest 444 511 36,000  Level FlightAware ADS-B
Mon 07:59:37 PM -17.9270 -45.6130 320° Northwest 444 511 36,000  Level FlightAware ADS-B
Mon 08:00:22 PM -17.8470 -45.6820 321° Northwest 444 511 36,000  Level FlightAware ADS-B
Mon 08:01:02 PM -17.7940 -45.7290 320° Northwest 444 511 36,000  Level FlightAware ADS-B
Mon 08:02:02 PM -17.6870 -45.8230 320° Northwest 443 510 36,000  Level FlightAware ADS-B
Mon 08:02:42 PM -17.6330 -45.8700 320° Northwest 443 510 36,000  Level FlightAware ADS-B
Mon 08:03:22 PM -17.5800 -45.9170 320° Northwest 443 510 36,000  Level FlightAware ADS-B
Mon 08:04:12 PM -17.5130 -45.9760 320° Northwest 443 510 36,000  Level FlightAware ADS-B
Mon 08:05:07 PM -17.3950 -46.0770 321° Northwest 444 511 36,000  Level FlightAware ADS-B
Mon 08:05:42 PM -17.3340 -46.1300 320° Northwest 444 511 36,000  Level FlightAware ADS-B
Mon 08:06:32 PM -17.2710 -46.1860 320° Northwest 444 511 36,000  Level FlightAware ADS-B
Mon 08:07:12 PM -17.2170 -46.2330 320° Northwest 444 511 36,000  Level FlightAware ADS-B
Mon 08:07:17 PM -17.1980 -46.2720 297° West 36,000  Level FlightAware ADS-B
Mon 08:07:32 PM -17.1790 -46.2960 310° West 437 503 36,000  Level FlightAware ADS-B
Mon 08:08:22 PM -17.1220 -46.3640 311° West 437 503 36,000  Level FlightAware ADS-B
Mon 08:09:02 PM -17.0770 -46.4180 311° West 437 503 36,000  Level FlightAware ADS-B
Mon 08:09:42 PM -17.0320 -46.4720 311° West 437 503 36,000  Level FlightAware ADS-B
Mon 08:10:32 PM -16.9760 -46.5400 311° West 437 503 36,000  Level FlightAware ADS-B
Mon 08:11:12 PM -16.9310 -46.5940 311° West 437 503 36,000  Level FlightAware ADS-B
Mon 08:11:52 PM -16.8860 -46.6490 311° West 437 503 36,000  Level FlightAware ADS-B
Mon 08:12:32 PM -16.8410 -46.7030 311° West 437 503 36,000  Level FlightAware ADS-B
Mon 08:13:12 PM -16.7950 -46.7570 312° West 437 503 36,000  Level FlightAware ADS-B
Mon 08:14:02 PM -16.7390 -46.8250 311° West 437 503 36,000  Level FlightAware ADS-B
Mon 08:14:42 PM -16.6940 -46.8790 311° West 437 503 36,000  Level FlightAware ADS-B
Mon 08:15:22 PM -16.6490 -46.9330 311° West 437 503 36,000  Level FlightAware ADS-B
Mon 08:16:02 PM -16.6040 -46.9870 311° West 437 503 36,000  Level FlightAware ADS-B
Mon 08:16:42 PM -16.5590 -47.0410 311° West 437 503 36,000  Level FlightAware ADS-B
Mon 08:17:32 PM -16.5020 -47.1090 311° West 437 503 36,000 -7,161 Level FlightAware ADS-B
Mon 08:18:32 PM -16.2620 -47.3530 316° Northwest 19,000 -10,571 Descending FlightAware ADS-B
Mon 08:19:17 PM -16.2000 -47.4230 313° West 436 502 17,500 -2,743 Descending FlightAware ADS-B
Mon 08:20:17 PM -16.1180 -47.5160 313° West 440 506 14,200 -2,686 Descending FlightAware ADS-B
Mon 08:21:02 PM -16.0570 -47.5880 311° West 407 468 12,800 -1,457 Descending FlightAware ADS-B
Mon 08:21:27 PM -16.0400 -47.6330 291° West 406 467 12,500 -686 Descending FlightAware ADS-B
Mon 08:22:12 PM -16.0320 -47.7210 275° West 378 435 12,000 -1,050 Descending FlightAware ADS-B
Mon 08:22:47 PM -16.0260 -47.7790 276° West 358 412 11,100 -1,500 Descending FlightAware ADS-B
Mon 08:23:32 PM -16.0180 -47.8540 276° West 359 413 10,000 -943 Descending FlightAware ADS-B
Mon 08:23:57 PM -16.0140 -47.8950 276° West 359 413 10,000  Level FlightAware ADS-B
Mon 08:24:27 PM -16.0090 -47.9390 277° West 359 413 10,000  Level FlightAware ADS-B
Mon 08:24:57 PM -16.0050 -47.9830 275° West 359 413 10,000  Level FlightAware ADS-B
Mon 08:25:27 PM -16.0000 -48.0270 277° West 359 413 10,000 -1,745 Level FlightAware ADS-B
Mon 08:25:52 PM -15.9980 -48.0490 275° West 8,300 -2,400 Descending FlightAware ADS-B
Mon 08:26:37 PM -15.9920 -48.1070 276° West 6,900 -1,636 Descending FlightAware ADS-B
Mon 08:26:47 PM -15.9880 -48.1160 295° West 261 300 6,800 -686 Descending FlightAware ADS-B
Mon 08:27:12 PM -15.9610 -48.1320 330° Northwest 257 296 6,500 -360 Descending FlightAware ADS-B
Mon 08:27:37 PM -15.9340 -48.1350 354° North 257 296 6,500 -1,050 Level FlightAware ADS-B
Mon 08:27:52 PM -15.9180 -48.1200 42° Northeast 252 290 5,800 -1,560 Descending FlightAware ADS-B
Mon 08:28:27 PM -15.8820 -48.1040 23° Northeast 242 278 5,200 -600 Descending FlightAware ADS-B
Mon 08:28:52 PM -15.8630 -48.0870 41° Northeast 242 278 5,200 -480 Level FlightAware ADS-B
Mon 08:31:00 PM -15.8626 -47.9338 90° East  Level Estimated
Mon 08:32:00 PM -15.8626 -47.9127 90° East  Level Estimated
Mon 08:32:37 PM -15.8820 -48.1040 90° East 3,200  Level FlightAware ADS-B

Login

Don't have an account? Register now (free) for customized features, flight alerts, and more!